Terminal Aerodrome Forecast
Issued by NWS

Current Version | Previous Version | Text Only | Print | Product List | Glossary On
Versions: 1 2 3 4 5 6 7 8 9 10 11 12 13 14 15 16 17 18 19 20
000
FTUS45 KFGZ 180500 RRA
TAFPGA
TAF
KPGA 180541Z 1806/1906 VRB06KT P6SM SCT060 BKN090
      TEMPO 1806/1809 4SM BR BKN050
     FM180900 VRB04KT 6SM BR SCT015 BKN025
      TEMPO 1810/1814 1SM BR BKN010
     FM181500 25005KT P6SM SCT025 BKN045
     FM190100 VRB03KT P6SM FEW050=

USA.gov is the U.S. government's official web portal to all federal, state and local government web resources and services.